Time;durP1;ratioP1;P1;durP2;ratioP2;P2;SDS_P1;SDS_P2;PMS_P1;PMS_P2;Temp;Humidity;BMP_temperature;BMP_pressure;BME280_temperature;BME280_humidity;BME280_pressure;Samples;Min_cycle;Max_cycle;Signal;HPM_P1;HPM_P2
2023/09/06 00:01:10;;;;;;;2.28;2.00;;;20.60;70.00;;;;;;5076986;28;20052;-72
2023/09/06 00:03:37;;;;;;;3.83;3.40;;;20.60;70.00;;;;;;5077260;28;20598;-72
2023/09/06 00:06:06;;;;;;;5.70;4.60;;;20.50;70.20;;;;;;5077493;28;20063;-72
2023/09/06 00:08:34;;;;;;;5.30;4.55;;;20.50;71.00;;;;;;5098866;28;20115;-72
2023/09/06 00:11:04;;;;;;;6.13;5.30;;;20.50;72.10;;;;;;5113364;28;20032;-72
2023/09/06 00:13:33;;;;;;;6.55;4.80;;;20.40;73.00;;;;;;5095747;28;20064;-72
2023/09/06 00:16:03;;;;;;;6.28;4.53;;;20.30;73.20;;;;;;5100783;28;20410;-72
2023/09/06 00:18:29;;;;;;;6.72;4.63;;;20.20;73.30;;;;;;5074784;28;20032;-72
2023/09/06 00:20:57;;;;;;;5.82;4.70;;;20.10;73.10;;;;;;5105903;28;20139;-72
2023/09/06 00:23:27;;;;;;;5.35;4.50;;;20.10;73.40;;;;;;5105490;28;20108;-72
2023/09/06 00:25:53;;;;;;;4.00;3.05;;;20.00;73.50;;;;;;5093083;28;20075;-72
2023/09/06 00:28:20;;;;;;;4.82;4.22;;;19.90;73.60;;;;;;5104025;28;20043;-72
2023/09/06 00:30:45;;;;;;;4.22;3.30;;;19.90;73.80;;;;;;5084584;28;20055;-72
2023/09/06 00:33:11;;;;;;;3.85;2.78;;;19.80;73.90;;;;;;5073343;28;20040;-72
2023/09/06 00:35:38;;;;;;;3.45;2.78;;;19.80;74.00;;;;;;5072640;28;20055;-72
2023/09/06 00:38:07;;;;;;;2.90;2.20;;;19.80;73.90;;;;;;5099825;28;20475;-72
2023/09/06 00:40:36;;;;;;;4.25;2.50;;;19.70;73.80;;;;;;5082095;28;20130;-72
2023/09/06 00:43:03;;;;;;;4.10;2.60;;;19.70;73.80;;;;;;5093624;28;20043;-72
2023/09/06 00:45:42;;;;;;;3.60;2.88;;;19.70;73.80;;;;;;5092316;28;20036;-72
2023/09/06 00:48:11;;;;;;;3.55;2.83;;;19.70;73.80;;;;;;5091513;28;20048;-72
2023/09/06 00:50:37;;;;;;;4.35;2.88;;;19.70;73.70;;;;;;5075777;28;20384;-72
2023/09/06 00:53:06;;;;;;;3.67;2.85;;;19.70;73.60;;;;;;5092063;28;20074;-72
2023/09/06 00:55:34;;;;;;;5.13;3.00;;;19.70;73.40;;;;;;5105581;28;20044;-72
2023/09/06 00:58:00;;;;;;;4.07;2.90;;;19.70;73.40;;;;;;5092487;28;20071;-72
2023/09/06 01:00:26;;;;;;;4.68;2.53;;;19.70;73.20;;;;;;5092298;28;20131;-72
2023/09/06 01:02:52;;;;;;;3.78;2.72;;;19.70;73.10;;;;;;5089323;28;20479;-72
2023/09/06 01:05:19;;;;;;;4.32;3.60;;;19.70;72.80;;;;;;5084789;28;20048;-72
2023/09/06 01:07:53;;;;;;;4.53;3.72;;;19.70;72.30;;;;;;5097555;28;20058;-72
2023/09/06 01:10:19;;;;;;;3.90;3.40;;;19.70;71.10;;;;;;5107621;28;20036;-72
2023/09/06 01:12:45;;;;;;;3.17;2.58;;;19.60;71.10;;;;;;5113724;28;20091;-72
2023/09/06 01:15:11;;;;;;;2.40;2.17;;;19.50;71.40;;;;;;5112510;28;20050;-72
2023/09/06 01:17:41;;;;;;;2.92;2.63;;;19.50;71.60;;;;;;5110808;28;20101;-72
2023/09/06 01:20:29;;;;;;;2.83;2.33;;;19.50;71.80;;;;;;5091669;28;20036;-72
2023/09/06 01:23:30;;;;;;;3.58;2.50;;;19.40;71.70;;;;;;5105877;28;20088;-72
2023/09/06 01:25:56;;;;;;;3.35;2.53;;;19.40;71.80;;;;;;5069872;28;20056;-72
2023/09/06 01:28:27;;;;;;;4.68;3.00;;;19.40;72.00;;;;;;5112330;28;20433;-72
2023/09/06 01:30:53;;;;;;;4.93;3.78;;;19.40;72.00;;;;;;5112420;28;20047;-73
2023/09/06 01:33:19;;;;;;;4.43;3.90;;;19.40;71.90;;;;;;5112451;28;20510;-73
2023/09/06 01:35:45;;;;;;;5.72;4.07;;;19.40;71.90;;;;;;5107904;28;20047;-73
2023/09/06 01:38:11;;;;;;;5.57;3.10;;;19.30;72.00;;;;;;5080643;28;20361;-73
2023/09/06 01:40:37;;;;;;;3.63;2.72;;;19.20;72.30;;;;;;5091914;28;20044;-72
2023/09/06 01:43:03;;;;;;;3.28;2.47;;;19.20;72.60;;;;;;5091935;28;20185;-72
2023/09/06 01:45:29;;;;;;;3.72;3.13;;;19.10;72.70;;;;;;5090831;28;20044;-72
2023/09/06 01:47:55;;;;;;;4.53;2.63;;;19.10;72.80;;;;;;5097617;28;20040;-72
2023/09/06 01:50:22;;;;;;;4.45;2.70;;;19.10;72.90;;;;;;5091717;28;20044;-72
2023/09/06 01:52:47;;;;;;;3.80;2.58;;;19.10;73.00;;;;;;5091831;28;20043;-72
2023/09/06 01:55:13;;;;;;;3.92;2.53;;;19.10;73.00;;;;;;5099537;28;20043;-72
2023/09/06 01:57:39;;;;;;;3.47;2.22;;;19.00;72.90;;;;;;5110108;28;20051;-72
2023/09/06 02:02:49;;;;;;;3.33;2.70;;;19.00;72.90;;;;;;5092700;28;20059;-72
2023/09/06 02:05:15;;;;;;;4.32;3.30;;;19.00;72.60;;;;;;5095845;28;20046;-72
2023/09/06 02:07:40;;;;;;;4.90;2.72;;;19.00;72.50;;;;;;5095838;28;20040;-73
2023/09/06 02:10:10;;;;;;;2.88;2.30;;;19.00;72.30;;;;;;5093719;28;20028;-73
2023/09/06 02:12:36;;;;;;;3.00;2.70;;;19.00;72.10;;;;;;5106780;28;20114;-73
2023/09/06 02:15:05;;;;;;;4.13;2.50;;;19.00;72.30;;;;;;5116106;28;20051;-73
2023/09/06 02:17:31;;;;;;;2.88;2.40;;;19.00;71.70;;;;;;5111952;28;20042;-73
2023/09/06 02:19:57;;;;;;;2.83;2.30;;;18.90;71.70;;;;;;5095800;28;20391;-73
2023/09/06 02:22:23;;;;;;;3.80;2.88;;;18.90;71.70;;;;;;5095773;28;20040;-72
2023/09/06 02:24:48;;;;;;;3.10;2.65;;;18.90;71.80;;;;;;5110334;28;20054;-72
2023/09/06 02:27:14;;;;;;;3.50;3.03;;;18.90;71.90;;;;;;5101597;28;20036;-72
2023/09/06 02:29:41;;;;;;;4.25;2.47;;;18.90;71.90;;;;;;5075681;28;20468;-72
2023/09/06 02:32:07;;;;;;;3.72;2.75;;;18.90;71.90;;;;;;5075121;28;20042;-72
2023/09/06 02:34:34;;;;;;;3.20;2.38;;;18.90;71.90;;;;;;5091976;28;20048;-72
2023/09/06 02:37:00;;;;;;;2.38;2.00;;;18.90;71.90;;;;;;5075013;28;20044;-72
2023/09/06 02:39:25;;;;;;;5.22;3.70;;;18.90;72.00;;;;;;5093379;28;20047;-72
2023/09/06 02:41:51;;;;;;;2.97;2.30;;;18.90;72.10;;;;;;5104110;28;20050;-73
2023/09/06 02:44:17;;;;;;;3.50;2.60;;;18.80;72.20;;;;;;5092924;28;20506;-73
2023/09/06 02:46:43;;;;;;;3.22;2.83;;;18.80;72.30;;;;;;5075056;28;20040;-73
2023/09/06 02:49:13;;;;;;;4.05;3.28;;;18.80;72.40;;;;;;5089764;28;20559;-72
2023/09/06 02:51:42;;;;;;;3.90;3.33;;;18.80;72.50;;;;;;5094959;28;20055;-72
2023/09/06 02:54:09;;;;;;;3.33;2.90;;;18.80;72.70;;;;;;5094864;28;20063;-73
2023/09/06 02:56:37;;;;;;;3.90;3.33;;;18.80;72.90;;;;;;5115271;28;20039;-73
2023/09/06 02:59:12;;;;;;;3.55;2.80;;;18.80;72.70;;;;;;5098422;28;20040;-72
2023/09/06 03:01:44;;;;;;;4.47;2.90;;;18.80;72.90;;;;;;5084177;28;20056;-72
2023/09/06 03:04:13;;;;;;;3.80;3.22;;;18.80;72.80;;;;;;5112950;28;20048;-72
2023/09/06 03:06:39;;;;;;;3.63;2.72;;;18.70;72.80;;;;;;5115140;28;20054;-72
2023/09/06 03:09:06;;;;;;;3.67;2.35;;;18.70;72.80;;;;;;5115389;28;20449;-73
2023/09/06 03:11:32;;;;;;;3.70;2.80;;;18.70;72.80;;;;;;5114797;28;20036;-73
2023/09/06 03:13:58;;;;;;;4.40;3.10;;;18.80;72.80;;;;;;5113804;28;20032;-72
2023/09/06 03:16:24;;;;;;;4.03;2.58;;;18.80;72.80;;;;;;5096575;28;20089;-72
2023/09/06 03:18:51;;;;;;;3.85;2.72;;;18.70;72.70;;;;;;5111161;28;20042;-72
2023/09/06 03:21:17;;;;;;;3.45;2.88;;;18.70;72.80;;;;;;5115134;28;20429;-72
2023/09/06 03:23:45;;;;;;;3.65;2.58;;;18.70;72.70;;;;;;5114838;28;20047;-72
2023/09/06 03:26:12;;;;;;;3.92;3.05;;;18.70;72.70;;;;;;5114318;28;20040;-72
2023/09/06 03:28:42;;;;;;;3.28;2.65;;;18.70;72.80;;;;;;5114679;28;20367;-72
2023/09/06 03:31:13;;;;;;;3.97;2.63;;;18.70;72.80;;;;;;5108723;28;20122;-72
2023/09/06 03:33:39;;;;;;;3.25;2.60;;;18.70;72.90;;;;;;5093993;28;20040;-72
2023/09/06 03:36:08;;;;;;;3.55;2.63;;;18.70;73.00;;;;;;5092282;28;20044;-72
2023/09/06 03:38:36;;;;;;;4.63;3.20;;;18.60;73.00;;;;;;5111282;28;20077;-72
2023/09/06 03:41:07;;;;;;;3.38;2.92;;;18.60;73.10;;;;;;5114705;28;20479;-72
2023/09/06 03:43:33;;;;;;;3.30;2.30;;;18.60;73.10;;;;;;5114330;28;20043;-72
2023/09/06 03:46:04;;;;;;;3.90;2.60;;;18.60;73.20;;;;;;5101582;28;20181;-72
2023/09/06 03:48:30;;;;;;;3.20;2.50;;;18.60;73.10;;;;;;5094217;28;20101;-72
2023/09/06 03:51:02;;;;;;;3.60;2.70;;;18.50;73.10;;;;;;5092643;28;20586;-72
2023/09/06 03:53:29;;;;;;;3.60;2.83;;;18.50;73.10;;;;;;5073707;28;20043;-72
2023/09/06 03:55:57;;;;;;;6.30;2.55;;;18.50;73.10;;;;;;5093828;28;20081;-72
2023/09/06 03:58:27;;;;;;;3.20;2.67;;;18.50;73.10;;;;;;5096735;28;20142;-72
2023/09/06 04:00:53;;;;;;;3.47;2.53;;;18.50;73.10;;;;;;5096327;28;20621;-72
2023/09/06 04:03:20;;;;;;;3.53;2.60;;;18.50;73.10;;;;;;5093517;28;20533;-73
2023/09/06 04:05:46;;;;;;;4.32;3.17;;;18.50;73.10;;;;;;5093514;28;20048;-73
2023/09/06 04:08:17;;;;;;;3.60;2.63;;;18.50;73.00;;;;;;5087507;28;20116;-73
2023/09/06 04:10:44;;;;;;;2.92;2.08;;;18.40;73.00;;;;;;5107176;28;20040;-73
2023/09/06 04:13:12;;;;;;;2.30;1.90;;;18.40;72.90;;;;;;5110566;28;20126;-73
2023/09/06 04:15:39;;;;;;;4.30;2.95;;;18.40;72.90;;;;;;5093385;28;20563;-73
2023/09/06 04:18:07;;;;;;;3.63;2.58;;;18.40;72.90;;;;;;5101625;28;20048;-73
2023/09/06 04:20:38;;;;;;;3.95;2.60;;;18.40;72.90;;;;;;5114040;28;20383;-73
2023/09/06 04:23:06;;;;;;;5.00;2.95;;;18.40;72.80;;;;;;5113766;28;20414;-72
2023/09/06 04:25:34;;;;;;;3.03;2.20;;;18.30;72.70;;;;;;5092716;28;20411;-72
2023/09/06 04:28:07;;;;;;;3.40;2.47;;;18.30;72.60;;;;;;5108276;28;20470;-72
2023/09/06 04:30:38;;;;;;;3.30;2.57;;;18.30;72.60;;;;;;5113232;28;20035;-72
2023/09/06 04:33:12;;;;;;;3.17;2.30;;;18.30;72.60;;;;;;5113479;28;20044;-72
2023/09/06 04:35:43;;;;;;;2.97;2.50;;;18.20;73.00;;;;;;5096423;28;20051;-72
2023/09/06 04:38:14;;;;;;;3.42;2.90;;;18.20;72.60;;;;;;5113233;28;20118;-72
2023/09/06 04:40:43;;;;;;;3.42;2.53;;;18.20;72.70;;;;;;5113215;28;20043;-72
2023/09/06 04:43:10;;;;;;;4.00;3.10;;;18.10;72.70;;;;;;5101625;28;20482;-72
2023/09/06 04:45:38;;;;;;;5.13;3.58;;;18.10;72.80;;;;;;5094217;28;20124;-72
2023/09/06 04:48:09;;;;;;;5.85;3.53;;;18.10;73.00;;;;;;5092904;28;20036;-72
2023/09/06 04:50:37;;;;;;;4.72;3.78;;;18.00;73.30;;;;;;5092657;28;20556;-72
2023/09/06 04:53:04;;;;;;;4.82;3.65;;;18.00;73.50;;;;;;5092713;28;20476;-71
2023/09/06 04:55:35;;;;;;;6.82;5.40;;;18.00;73.90;;;;;;5076404;28;20479;-72
2023/09/06 04:58:05;;;;;;;6.30;4.88;;;17.90;74.40;;;;;;5094153;28;20387;-73
2023/09/06 05:00:38;;;;;;;5.85;5.25;;;17.90;74.90;;;;;;5075759;28;20082;-73
2023/09/06 05:03:10;;;;;;;6.60;5.20;;;17.90;75.40;;;;;;5094325;28;20060;-72
2023/09/06 05:05:37;;;;;;;6.00;4.93;;;17.80;75.50;;;;;;5112615;28;20398;-72
2023/09/06 05:08:03;;;;;;;5.18;4.65;;;17.80;76.00;;;;;;5111067;28;20115;-72
2023/09/06 05:10:30;;;;;;;4.75;4.05;;;17.70;76.20;;;;;;5113025;28;20143;-72
2023/09/06 05:12:56;;;;;;;5.38;4.38;;;17.70;76.30;;;;;;5095454;28;20040;-72
2023/09/06 05:15:22;;;;;;;5.43;4.32;;;17.70;76.40;;;;;;5089079;28;20394;-72
2023/09/06 05:17:47;;;;;;;6.28;5.68;;;17.70;76.50;;;;;;5092295;28;20047;-72
2023/09/06 05:20:33;;;;;;;5.57;4.22;;;17.70;76.60;;;;;;5075366;28;20050;-72
2023/09/06 05:23:12;;;;;;;6.03;4.70;;;17.70;76.70;;;;;;5092474;28;20131;-72
2023/09/06 05:25:39;;;;;;;5.90;5.13;;;17.70;76.80;;;;;;5100582;28;20454;-72
2023/09/06 05:28:10;;;;;;;6.03;4.90;;;17.60;76.90;;;;;;5103839;28;20479;-72
2023/09/06 05:30:40;;;;;;;5.85;4.78;;;17.60;77.10;;;;;;5092242;28;20496;-72
2023/09/06 05:33:06;;;;;;;7.93;5.40;;;17.60;77.40;;;;;;5074920;28;20033;-72
2023/09/06 05:35:32;;;;;;;7.45;6.32;;;17.60;77.50;;;;;;5071682;28;20055;-72
2023/09/06 05:37:57;;;;;;;7.65;6.00;;;17.60;77.90;;;;;;5105155;28;20066;-72
2023/09/06 05:40:23;;;;;;;7.40;6.35;;;17.60;78.30;;;;;;5112369;28;20550;-72
2023/09/06 05:42:50;;;;;;;8.23;6.13;;;17.60;78.50;;;;;;5105717;28;20088;-72
2023/09/06 05:45:21;;;;;;;10.27;6.10;;;17.60;78.60;;;;;;5093354;28;20043;-72
2023/09/06 05:47:47;;;;;;;5.25;4.75;;;17.60;78.80;;;;;;5091717;28;20036;-72
2023/09/06 05:50:13;;;;;;;6.82;4.95;;;17.70;79.00;;;;;;5074145;28;20040;-72
2023/09/06 05:52:39;;;;;;;7.00;5.82;;;17.70;79.10;;;;;;5071733;28;20041;-72
2023/09/06 05:55:06;;;;;;;7.13;6.43;;;17.70;79.10;;;;;;5071877;28;20048;-72
2023/09/06 05:57:32;;;;;;;7.72;5.88;;;17.70;79.30;;;;;;5071927;28;20434;-72
2023/09/06 05:59:59;;;;;;;7.25;6.20;;;17.70;79.30;;;;;;5088494;28;20036;-72
2023/09/06 06:02:25;;;;;;;7.82;6.68;;;17.70;79.40;;;;;;5071366;28;20057;-72
2023/09/06 06:04:52;;;;;;;6.90;6.20;;;17.80;79.60;;;;;;5105432;28;20109;-72
2023/09/06 06:07:18;;;;;;;8.82;6.20;;;17.80;79.80;;;;;;5072869;28;20043;-73
2023/09/06 06:09:44;;;;;;;8.00;6.07;;;17.80;80.10;;;;;;5071440;28;20131;-73
2023/09/06 06:12:10;;;;;;;8.32;5.72;;;17.90;80.30;;;;;;5071401;28;20075;-73
2023/09/06 06:14:41;;;;;;;8.15;5.20;;;17.90;80.30;;;;;;5071695;28;20372;-73
2023/09/06 06:17:09;;;;;;;8.93;5.82;;;18.10;80.30;;;;;;5081727;28;20044;-73
2023/09/06 06:19:35;;;;;;;8.00;5.65;;;18.20;80.30;;;;;;5112127;28;20044;-73
2023/09/06 06:22:04;;;;;;;7.15;5.93;;;18.40;80.30;;;;;;5111929;28;20123;-73
2023/09/06 06:24:30;;;;;;;5.80;5.20;;;18.50;80.10;;;;;;5074248;28;20052;-73
2023/09/06 06:26:56;;;;;;;8.15;5.75;;;18.70;79.70;;;;;;5071504;28;20369;-72
2023/09/06 06:29:22;;;;;;;5.40;4.78;;;18.80;79.40;;;;;;5071185;28;20070;-72
2023/09/06 06:31:48;;;;;;;6.63;4.55;;;19.00;79.00;;;;;;5071460;28;20048;-72
2023/09/06 06:34:14;;;;;;;7.45;5.32;;;19.30;78.60;;;;;;5071470;28;20051;-72
2023/09/06 06:36:41;;;;;;;7.20;5.05;;;19.40;78.10;;;;;;5071204;28;20048;-72
2023/09/06 06:39:07;;;;;;;6.30;5.25;;;19.60;77.40;;;;;;5071701;28;20040;-72
2023/09/06 06:41:33;;;;;;;6.38;4.90;;;19.70;76.60;;;;;;5071416;28;20052;-72
2023/09/06 06:43:58;;;;;;;7.88;5.82;;;19.80;75.80;;;;;;5070937;28;20094;-72
2023/09/06 06:46:36;;;;;;;6.03;4.70;;;19.90;75.50;;;;;;5071026;28;20114;-72
2023/09/06 06:49:04;;;;;;;6.55;5.15;;;20.00;75.30;;;;;;5071242;28;20032;-72
2023/09/06 06:51:35;;;;;;;5.57;4.70;;;20.10;75.30;;;;;;5074478;28;20094;-72
2023/09/06 06:54:02;;;;;;;5.70;4.47;;;20.20;75.10;;;;;;5074893;28;20052;-72
2023/09/06 06:56:27;;;;;;;5.75;4.90;;;20.30;74.90;;;;;;5075743;28;20040;-72
2023/09/06 06:58:53;;;;;;;5.53;4.13;;;20.40;74.50;;;;;;5074582;28;20093;-72
2023/09/06 07:01:24;;;;;;;7.50;4.75;;;20.40;74.10;;;;;;5074721;28;20048;-72
2023/09/06 07:03:50;;;;;;;5.18;4.45;;;20.50;73.90;;;;;;5108652;28;20048;-72
2023/09/06 07:06:16;;;;;;;5.95;4.57;;;20.50;73.40;;;;;;5091183;28;20048;-72
2023/09/06 07:08:42;;;;;;;5.82;4.57;;;20.60;73.10;;;;;;5091165;28;20044;-72
2023/09/06 07:11:07;;;;;;;12.07;5.15;;;20.70;72.90;;;;;;5074435;28;20036;-72
2023/09/06 07:13:34;;;;;;;5.13;4.38;;;20.80;72.70;;;;;;5075659;28;20064;-72
2023/09/06 07:16:00;;;;;;;6.50;4.15;;;20.90;72.30;;;;;;5074269;28;20055;-72
2023/09/06 07:18:26;;;;;;;6.20;4.82;;;21.00;72.20;;;;;;5074283;28;20045;-72
2023/09/06 07:20:52;;;;;;;5.20;4.28;;;21.00;72.00;;;;;;5074196;28;20047;-72
2023/09/06 07:23:17;;;;;;;5.65;4.05;;;21.10;71.60;;;;;;5074062;28;20048;-72
2023/09/06 07:25:46;;;;;;;7.00;4.40;;;21.20;71.50;;;;;;5073976;28;20106;-72
2023/09/06 07:28:15;;;;;;;6.28;4.07;;;21.30;70.90;;;;;;5084020;28;20074;-72
2023/09/06 07:30:44;;;;;;;4.93;3.53;;;21.40;70.70;;;;;;5093934;28;20433;-72
2023/09/06 07:33:11;;;;;;;5.13;4.05;;;21.40;70.20;;;;;;5094415;28;20369;-72
2023/09/06 07:35:36;;;;;;;8.40;3.80;;;21.40;69.70;;;;;;5094043;28;20479;-72
2023/09/06 07:38:02;;;;;;;9.00;4.38;;;21.50;69.40;;;;;;5094339;28;20044;-71
2023/09/06 07:40:28;;;;;;;6.15;4.40;;;21.60;69.30;;;;;;5093843;28;20079;-72
2023/09/06 07:42:53;;;;;;;8.50;4.47;;;21.60;69.50;;;;;;5077170;28;20078;-72
2023/09/06 07:45:19;;;;;;;6.25;4.45;;;21.70;69.40;;;;;;5079693;28;20438;-72
2023/09/06 07:47:45;;;;;;;6.10;4.10;;;21.80;69.40;;;;;;5073953;28;20076;-72
2023/09/06 07:50:11;;;;;;;5.70;4.60;;;21.90;69.30;;;;;;5073836;28;20036;-72
2023/09/06 07:52:38;;;;;;;6.20;4.47;;;22.00;68.80;;;;;;5073666;28;20112;-72
2023/09/06 07:55:07;;;;;;;5.75;4.20;;;22.10;68.50;;;;;;5073622;28;20055;-74
2023/09/06 07:57:33;;;;;;;5.65;3.60;;;22.20;68.20;;;;;;5073722;28;20048;-72
2023/09/06 07:59:59;;;;;;;5.63;3.30;;;22.30;68.30;;;;;;5073437;28;20048;-72
2023/09/06 08:02:25;;;;;;;5.65;3.80;;;22.40;68.00;;;;;;5073904;28;20056;-72
2023/09/06 08:04:50;;;;;;;6.35;4.22;;;22.60;67.60;;;;;;5107132;28;20119;-72
2023/09/06 08:07:17;;;;;;;6.22;4.22;;;22.70;66.10;;;;;;5073358;28;20372;-72
2023/09/06 08:09:43;;;;;;;4.97;3.55;;;22.90;65.90;;;;;;5073633;28;20516;-72
2023/09/06 08:12:09;;;;;;;6.90;3.85;;;23.10;65.90;;;;;;5073151;28;20076;-72
2023/09/06 08:14:35;;;;;;;9.43;3.72;;;23.20;65.60;;;;;;5073366;28;20392;-72
2023/09/06 08:17:01;;;;;;;6.40;4.25;;;23.40;65.30;;;;;;5073173;28;20036;-72
2023/09/06 08:19:27;;;;;;;7.68;4.07;;;23.60;64.50;;;;;;5074197;28;20049;-74
2023/09/06 08:21:53;;;;;;;5.57;3.60;;;23.80;63.70;;;;;;5073164;28;20041;-74
2023/09/06 08:24:19;;;;;;;7.10;4.00;;;23.90;63.50;;;;;;5073018;28;20045;-74
2023/09/06 08:26:48;;;;;;;4.53;3.50;;;24.10;63.10;;;;;;5074119;28;20040;-74
2023/09/06 08:29:14;;;;;;;4.38;3.33;;;24.30;62.90;;;;;;5056218;28;20048;-74
2023/09/06 08:31:39;;;;;;;4.93;3.60;;;24.40;62.80;;;;;;5073097;28;20045;-74
2023/09/06 08:34:05;;;;;;;6.38;3.50;;;24.60;61.70;;;;;;5076612;28;20040;-73
2023/09/06 08:36:31;;;;;;;5.72;3.67;;;24.80;61.00;;;;;;5056324;28;20502;-74
2023/09/06 08:38:58;;;;;;;4.60;3.40;;;24.90;59.70;;;;;;5072682;28;20120;-74
2023/09/06 08:41:26;;;;;;;4.57;3.35;;;25.10;59.20;;;;;;5056232;28;20123;-74
2023/09/06 08:43:53;;;;;;;5.93;3.35;;;25.20;58.40;;;;;;5072530;28;20045;-74
2023/09/06 08:46:27;;;;;;;4.30;2.72;;;25.30;58.10;;;;;;5072574;28;20045;-74
2023/09/06 08:48:55;;;;;;;5.13;3.40;;;25.40;58.50;;;;;;5058838;28;20043;-74
2023/09/06 08:51:22;;;;;;;4.50;3.30;;;25.50;58.50;;;;;;5092661;28;20117;-74
2023/09/06 08:53:48;;;;;;;5.60;3.55;;;25.60;57.80;;;;;;5092689;28;20042;-74
2023/09/06 08:56:17;;;;;;;4.43;3.20;;;25.70;57.20;;;;;;5092984;28;20391;-74
2023/09/06 08:58:43;;;;;;;5.22;2.65;;;25.80;57.00;;;;;;5092607;28;20472;-74
2023/09/06 09:01:09;;;;;;;5.10;2.78;;;25.80;56.60;;;;;;5092564;28;20052;-74
2023/09/06 09:03:35;;;;;;;6.95;2.80;;;25.90;57.00;;;;;;5090249;28;20044;-74
2023/09/06 09:06:06;;;;;;;5.13;3.15;;;26.00;56.50;;;;;;5092097;28;20518;-74
2023/09/06 09:08:33;;;;;;;5.07;3.10;;;26.10;56.40;;;;;;5092497;28;20044;-74
2023/09/06 09:11:15;;;;;;;4.50;2.85;;;26.20;55.40;;;;;;5092467;28;20064;-74
2023/09/06 09:13:41;;;;;;;3.65;2.83;;;26.20;55.40;;;;;;5074961;28;20036;-74
2023/09/06 09:16:12;;;;;;;3.97;2.75;;;26.30;56.00;;;;;;5092358;28;20044;-74
2023/09/06 09:18:38;;;;;;;5.57;3.30;;;26.40;55.50;;;;;;5092318;28;20044;-74
2023/09/06 09:21:07;;;;;;;4.63;2.50;;;26.50;55.30;;;;;;5090454;28;20047;-74
2023/09/06 09:23:42;;;;;;;4.70;2.75;;;26.50;55.90;;;;;;5092102;28;20039;-74
2023/09/06 09:26:08;;;;;;;5.50;3.10;;;26.60;55.70;;;;;;5091943;28;20104;-74
2023/09/06 09:28:34;;;;;;;4.60;2.83;;;26.80;56.00;;;;;;5092083;28;20047;-74
2023/09/06 09:31:01;;;;;;;3.42;2.78;;;26.80;55.80;;;;;;5092127;28;20036;-74
2023/09/06 09:33:28;;;;;;;5.07;2.83;;;26.90;55.70;;;;;;5092096;28;20048;-74
2023/09/06 09:35:55;;;;;;;4.15;2.95;;;27.00;54.90;;;;;;5078582;28;20166;-74
2023/09/06 09:38:21;;;;;;;4.35;2.90;;;27.00;54.60;;;;;;5071718;28;20044;-74
2023/09/06 09:41:06;;;;;;;4.40;2.70;;;27.10;54.10;;;;;;5071726;28;20051;-74
2023/09/06 09:43:32;;;;;;;5.10;2.35;;;27.20;54.50;;;;;;5071647;28;20058;-74
2023/09/06 09:45:58;;;;;;;6.40;2.60;;;27.30;54.80;;;;;;5071696;28;20080;-74
2023/09/06 09:48:29;;;;;;;4.07;2.53;;;27.40;54.10;;;;;;5071703;28;20084;-74
2023/09/06 09:50:55;;;;;;;4.25;2.17;;;27.60;53.10;;;;;;5088086;28;20445;-74
2023/09/06 09:53:23;;;;;;;3.55;2.70;;;27.60;53.80;;;;;;5072910;28;20064;-74
2023/09/06 09:55:51;;;;;;;9.07;3.08;;;27.60;53.60;;;;;;5071594;28;20040;-72
2023/09/06 09:58:19;;;;;;;6.55;2.78;;;27.70;52.90;;;;;;5071408;28;20400;-72
2023/09/06 10:00:45;;;;;;;3.88;2.50;;;27.80;52.90;;;;;;5088381;28;20041;-72
2023/09/06 10:03:13;;;;;;;3.92;2.85;;;27.90;52.70;;;;;;5070922;28;20140;-72
2023/09/06 10:05:41;;;;;;;4.45;2.70;;;27.90;52.50;;;;;;5071291;28;20053;-73
2023/09/06 10:08:09;;;;;;;3.90;2.20;;;28.00;52.30;;;;;;5073723;28;20036;-72
2023/09/06 10:10:40;;;;;;;3.80;2.55;;;28.00;53.00;;;;;;5080763;28;20399;-72
2023/09/06 10:13:09;;;;;;;3.85;2.53;;;28.10;52.80;;;;;;5102454;28;20058;-72
2023/09/06 10:15:36;;;;;;;3.67;2.40;;;28.20;51.80;;;;;;5085228;28;20055;-72
2023/09/06 10:18:03;;;;;;;4.47;2.65;;;28.30;51.80;;;;;;5068159;28;20085;-72
2023/09/06 10:20:32;;;;;;;5.38;2.80;;;28.40;51.00;;;;;;5091414;28;20051;-72
2023/09/06 10:23:00;;;;;;;3.75;3.00;;;28.40;50.70;;;;;;5105438;28;20036;-72
2023/09/06 10:25:26;;;;;;;4.47;2.90;;;28.40;50.20;;;;;;5076943;28;20127;-72
2023/09/06 10:27:54;;;;;;;9.52;3.00;;;28.50;50.30;;;;;;5094241;28;20548;-72
2023/09/06 10:30:43;;;;;;;4.18;2.85;;;28.60;50.50;;;;;;5094533;28;20058;-72
2023/09/06 10:33:31;;;;;;;4.85;2.90;;;28.60;50.00;;;;;;5094262;28;20096;-72
2023/09/06 10:35:58;;;;;;;3.97;2.47;;;28.60;50.00;;;;;;5080503;28;20135;-72
2023/09/06 10:38:23;;;;;;;6.65;3.17;;;28.70;50.20;;;;;;5094658;28;20044;-72
2023/09/06 10:40:51;;;;;;;4.60;2.42;;;28.70;49.70;;;;;;5080312;28;20036;-72
2023/09/06 10:43:20;;;;;;;4.10;2.75;;;28.70;49.30;;;;;;5074873;28;20460;-72
2023/09/06 10:46:07;;;;;;;4.03;2.50;;;28.80;49.20;;;;;;5058055;28;20476;-72
2023/09/06 10:48:33;;;;;;;4.05;2.63;;;28.80;50.00;;;;;;5074736;28;20086;-72
2023/09/06 10:51:11;;;;;;;5.68;2.80;;;28.80;49.70;;;;;;5074776;28;20431;-72
2023/09/06 10:53:37;;;;;;;4.28;2.50;;;28.90;49.50;;;;;;5074720;28;20032;-75
2023/09/06 10:56:05;;;;;;;6.05;2.67;;;28.90;49.90;;;;;;5075074;28;20097;-74
2023/09/06 10:58:34;;;;;;;3.97;2.83;;;28.90;49.40;;;;;;5089410;28;20039;-75
2023/09/06 11:01:18;;;;;;;5.65;3.20;;;29.00;49.40;;;;;;5083097;28;20056;-75
2023/09/06 11:03:50;;;;;;;4.25;2.60;;;29.00;49.50;;;;;;5093381;28;20403;-75
2023/09/06 11:06:18;;;;;;;6.07;2.63;;;29.00;49.60;;;;;;5094268;28;20494;-75
2023/09/06 11:08:45;;;;;;;4.25;2.85;;;29.10;49.60;;;;;;5094457;28;20044;-75
2023/09/06 11:11:14;;;;;;;4.47;2.90;;;29.10;49.40;;;;;;5075004;28;20032;-75
2023/09/06 11:13:42;;;;;;;4.40;3.10;;;29.20;49.30;;;;;;5077221;28;20032;-75
2023/09/06 11:16:18;;;;;;;3.25;2.60;;;29.20;49.00;;;;;;5094168;28;20059;-75
2023/09/06 11:18:48;;;;;;;4.05;2.85;;;29.20;49.40;;;;;;5094130;28;20495;-75
2023/09/06 11:21:22;;;;;;;4.88;2.60;;;29.20;49.00;;;;;;5058229;28;20108;-75
2023/09/06 11:23:50;;;;;;;4.10;2.80;;;29.20;49.10;;;;;;5093910;28;20044;-74
2023/09/06 11:26:17;;;;;;;5.18;2.40;;;29.20;48.80;;;;;;5094021;28;20123;-75
2023/09/06 11:28:43;;;;;;;4.22;2.97;;;29.20;49.20;;;;;;5093974;28;20032;-75
2023/09/06 11:31:25;;;;;;;4.40;2.33;;;29.30;49.00;;;;;;5092314;28;20513;-75
2023/09/06 11:33:58;;;;;;;4.03;2.22;;;29.40;49.30;;;;;;5094067;28;20032;-75
2023/09/06 11:36:27;;;;;;;;;;;29.40;48.90;;;;;;5093678;28;20043;-75
2023/09/06 11:38:54;;;;;;;3.83;2.25;;;29.40;49.30;;;;;;5093763;28;19916;-75
2023/09/06 11:41:21;;;;;;;5.28;2.13;;;29.40;48.70;;;;;;5093960;28;20040;-75
2023/09/06 11:43:49;;;;;;;2.63;2.17;;;29.50;48.90;;;;;;5076892;28;20051;-74
2023/09/06 11:46:17;;;;;;;4.80;1.92;;;29.50;48.40;;;;;;5093601;28;20033;-76
2023/09/06 11:48:44;;;;;;;4.38;2.30;;;29.60;47.60;;;;;;5092799;28;20093;-75
2023/09/06 11:51:13;;;;;;;3.90;2.10;;;29.60;47.00;;;;;;5093836;28;20036;-77
2023/09/06 11:53:41;;;;;;;2.42;1.90;;;29.60;47.10;;;;;;5093538;28;20052;-75
2023/09/06 11:56:11;;;;;;;3.58;2.42;;;29.70;47.10;;;;;;5093763;28;20082;-75
2023/09/06 11:58:43;;;;;;;5.03;2.17;;;29.70;47.10;;;;;;5093665;28;20059;-75
2023/09/06 12:01:11;;;;;;;4.65;2.17;;;29.70;47.50;;;;;;5093765;28;20055;-75
2023/09/06 12:03:44;;;;;;;4.45;2.25;;;29.80;47.60;;;;;;5092339;28;20558;-75
2023/09/06 12:06:10;;;;;;;2.70;2.00;;;29.90;47.90;;;;;;5092852;28;20035;-76
2023/09/06 12:08:38;;;;;;;5.35;2.10;;;29.90;48.00;;;;;;5093370;28;20395;-76
2023/09/06 12:11:10;;;;;;;5.85;2.10;;;30.00;47.10;;;;;;5093237;28;20036;-75
2023/09/06 12:13:38;;;;;;;3.30;2.22;;;30.00;46.60;;;;;;5090806;28;20040;-75
2023/09/06 12:16:09;;;;;;;4.45;2.30;;;30.00;46.70;;;;;;5093125;28;20040;-75
2023/09/06 12:18:36;;;;;;;3.67;2.10;;;30.10;46.30;;;;;;5076274;28;20040;-75
2023/09/06 12:21:03;;;;;;;3.22;1.75;;;30.10;45.60;;;;;;5093104;28;20134;-76
2023/09/06 12:23:29;;;;;;;3.38;1.98;;;30.10;45.10;;;;;;5092845;28;20050;-76
2023/09/06 12:25:57;;;;;;;3.42;1.92;;;30.10;45.30;;;;;;5093009;28;20040;-76
2023/09/06 12:28:23;;;;;;;3.35;2.38;;;30.10;45.30;;;;;;5059475;28;20072;-76
2023/09/06 12:30:54;;;;;;;3.13;1.90;;;30.10;45.50;;;;;;5092688;28;20043;-76
2023/09/06 12:33:22;;;;;;;3.40;2.05;;;30.10;45.10;;;;;;5076973;28;20074;-76
2023/09/06 12:36:01;;;;;;;2.65;1.85;;;30.10;45.00;;;;;;5072305;28;20040;-76
2023/09/06 12:38:29;;;;;;;2.50;1.65;;;30.10;45.30;;;;;;5077049;28;20125;-76
2023/09/06 12:40:56;;;;;;;3.60;2.13;;;30.10;45.70;;;;;;5092606;28;20564;-75
2023/09/06 12:43:24;;;;;;;3.85;2.38;;;30.10;45.20;;;;;;5092738;28;20402;-75
2023/09/06 12:45:50;;;;;;;3.22;2.03;;;30.20;44.90;;;;;;5081676;28;20411;-76
2023/09/06 12:48:16;;;;;;;3.75;1.70;;;30.20;44.90;;;;;;5075975;28;20032;-76
2023/09/06 12:50:42;;;;;;;4.57;1.83;;;30.20;45.00;;;;;;5077219;28;20169;-76
2023/09/06 12:53:08;;;;;;;5.45;2.00;;;30.30;45.40;;;;;;5060499;28;20430;-76
2023/09/06 12:55:35;;;;;;;2.88;2.00;;;30.30;44.60;;;;;;5060730;28;20066;-75